sensor_id;sensor_type;location;lat;lon;timestamp;temperature;humidity
52859;DHT22;38721;53.098;6.596;2023-08-06T00:00:26;14.10;99.90
52859;DHT22;38721;53.098;6.596;2023-08-06T00:02:51;14.10;99.90
52859;DHT22;38721;53.098;6.596;2023-08-06T00:05:20;14.10;99.90
52859;DHT22;38721;53.098;6.596;2023-08-06T00:07:49;14.10;99.90
52859;DHT22;38721;53.098;6.596;2023-08-06T00:10:15;14.10;99.90
52859;DHT22;38721;53.098;6.596;2023-08-06T00:12:41;14.10;99.90
52859;DHT22;38721;53.098;6.596;2023-08-06T00:15:07;14.10;99.90
52859;DHT22;38721;53.098;6.596;2023-08-06T00:17:36;14.10;99.90
52859;DHT22;38721;53.098;6.596;2023-08-06T00:20:06;14.10;99.90
52859;DHT22;38721;53.098;6.596;2023-08-06T00:22:37;14.10;99.90
52859;DHT22;38721;53.098;6.596;2023-08-06T00:25:04;14.10;99.90
52859;DHT22;38721;53.098;6.596;2023-08-06T00:27:30;14.00;99.90
52859;DHT22;38721;53.098;6.596;2023-08-06T00:29:57;14.10;99.90
52859;DHT22;38721;53.098;6.596;2023-08-06T00:32:24;14.10;99.90
52859;DHT22;38721;53.098;6.596;2023-08-06T00:34:49;14.10;99.90
52859;DHT22;38721;53.098;6.596;2023-08-06T00:37:16;14.10;99.90
52859;DHT22;38721;53.098;6.596;2023-08-06T00:39:42;14.10;99.90
52859;DHT22;38721;53.098;6.596;2023-08-06T00:42:09;14.10;99.90
52859;DHT22;38721;53.098;6.596;2023-08-06T00:44:35;14.10;99.90
52859;DHT22;38721;53.098;6.596;2023-08-06T00:47:01;14.10;99.90
52859;DHT22;38721;53.098;6.596;2023-08-06T00:49:27;14.00;99.90
52859;DHT22;38721;53.098;6.596;2023-08-06T00:51:54;14.00;99.90
52859;DHT22;38721;53.098;6.596;2023-08-06T00:54:20;14.00;99.90
52859;DHT22;38721;53.098;6.596;2023-08-06T00:56:46;14.10;99.90
52859;DHT22;38721;53.098;6.596;2023-08-06T00:59:13;14.10;99.90
52859;DHT22;38721;53.098;6.596;2023-08-06T01:01:39;14.10;99.90
52859;DHT22;38721;53.098;6.596;2023-08-06T01:04:05;14.10;99.90
52859;DHT22;38721;53.098;6.596;2023-08-06T01:06:41;14.10;99.90
52859;DHT22;38721;53.098;6.596;2023-08-06T01:15:08;14.10;99.90
52859;DHT22;38721;53.098;6.596;2023-08-06T01:17:36;14.10;99.90
52859;DHT22;38721;53.098;6.596;2023-08-06T01:20:02;14.10;99.90
52859;DHT22;38721;53.098;6.596;2023-08-06T01:22:28;14.10;99.90
52859;DHT22;38721;53.098;6.596;2023-08-06T01:24:54;14.10;99.90
52859;DHT22;38721;53.098;6.596;2023-08-06T01:27:33;14.10;99.90
52859;DHT22;38721;53.098;6.596;2023-08-06T01:30:26;14.10;99.90
52859;DHT22;38721;53.098;6.596;2023-08-06T01:32:55;14.10;99.90
52859;DHT22;38721;53.098;6.596;2023-08-06T01:35:23;14.10;99.90
52859;DHT22;38721;53.098;6.596;2023-08-06T01:37:50;14.10;99.90
52859;DHT22;38721;53.098;6.596;2023-08-06T01:40:16;14.10;99.90
52859;DHT22;38721;53.098;6.596;2023-08-06T01:42:42;14.10;99.90
52859;DHT22;38721;53.098;6.596;2023-08-06T01:45:08;14.10;99.90
52859;DHT22;38721;53.098;6.596;2023-08-06T01:47:34;14.10;99.90
52859;DHT22;38721;53.098;6.596;2023-08-06T01:50:01;14.00;99.90
52859;DHT22;38721;53.098;6.596;2023-08-06T01:52:27;14.10;99.90
52859;DHT22;38721;53.098;6.596;2023-08-06T01:54:53;14.10;99.90
52859;DHT22;38721;53.098;6.596;2023-08-06T01:57:18;14.10;99.90
52859;DHT22;38721;53.098;6.596;2023-08-06T01:59:44;14.10;99.90
52859;DHT22;38721;53.098;6.596;2023-08-06T02:02:09;14.10;99.90
52859;DHT22;38721;53.098;6.596;2023-08-06T02:04:35;14.10;99.90
52859;DHT22;38721;53.098;6.596;2023-08-06T02:07:01;14.10;99.90
52859;DHT22;38721;53.098;6.596;2023-08-06T02:09:26;14.10;99.90
52859;DHT22;38721;53.098;6.596;2023-08-06T02:11:55;14.10;99.90
52859;DHT22;38721;53.098;6.596;2023-08-06T02:14:21;14.10;99.90
52859;DHT22;38721;53.098;6.596;2023-08-06T02:16:47;14.10;99.90
52859;DHT22;38721;53.098;6.596;2023-08-06T02:19:12;14.10;99.90
52859;DHT22;38721;53.098;6.596;2023-08-06T02:21:38;14.10;99.90
52859;DHT22;38721;53.098;6.596;2023-08-06T02:24:04;14.10;99.90
52859;DHT22;38721;53.098;6.596;2023-08-06T02:26:29;14.10;99.90
52859;DHT22;38721;53.098;6.596;2023-08-06T02:28:55;14.10;99.90
52859;DHT22;38721;53.098;6.596;2023-08-06T02:31:21;14.10;99.90
52859;DHT22;38721;53.098;6.596;2023-08-06T02:33:46;14.10;99.90
52859;DHT22;38721;53.098;6.596;2023-08-06T02:36:12;14.10;99.90
52859;DHT22;38721;53.098;6.596;2023-08-06T02:38:37;14.10;99.90
52859;DHT22;38721;53.098;6.596;2023-08-06T02:41:03;14.10;99.90
52859;DHT22;38721;53.098;6.596;2023-08-06T02:43:29;14.00;99.90
52859;DHT22;38721;53.098;6.596;2023-08-06T02:46:04;14.00;99.90
52859;DHT22;38721;53.098;6.596;2023-08-06T02:48:32;14.10;99.90
52859;DHT22;38721;53.098;6.596;2023-08-06T02:50:59;14.00;99.90
52859;DHT22;38721;53.098;6.596;2023-08-06T02:53:25;14.00;99.90
52859;DHT22;38721;53.098;6.596;2023-08-06T02:55:51;14.00;99.90
52859;DHT22;38721;53.098;6.596;2023-08-06T02:58:20;14.00;99.90
52859;DHT22;38721;53.098;6.596;2023-08-06T03:01:06;14.00;99.90
52859;DHT22;38721;53.098;6.596;2023-08-06T03:03:33;14.00;99.90
52859;DHT22;38721;53.098;6.596;2023-08-06T03:05:59;14.00;99.90
52859;DHT22;38721;53.098;6.596;2023-08-06T03:08:25;14.00;99.90
52859;DHT22;38721;53.098;6.596;2023-08-06T03:10:51;14.00;99.90
52859;DHT22;38721;53.098;6.596;2023-08-06T03:13:18;14.00;99.90
52859;DHT22;38721;53.098;6.596;2023-08-06T03:15:51;14.00;99.90
52859;DHT22;38721;53.098;6.596;2023-08-06T03:18:21;14.00;99.90
52859;DHT22;38721;53.098;6.596;2023-08-06T03:20:47;14.00;99.90
52859;DHT22;38721;53.098;6.596;2023-08-06T03:23:13;14.00;99.90
52859;DHT22;38721;53.098;6.596;2023-08-06T03:25:39;14.00;99.90
52859;DHT22;38721;53.098;6.596;2023-08-06T03:28:04;14.00;99.90
52859;DHT22;38721;53.098;6.596;2023-08-06T03:30:30;14.00;99.90
52859;DHT22;38721;53.098;6.596;2023-08-06T03:32:56;14.00;99.90
52859;DHT22;38721;53.098;6.596;2023-08-06T03:35:22;14.00;99.90
52859;DHT22;38721;53.098;6.596;2023-08-06T03:37:47;14.00;99.90
52859;DHT22;38721;53.098;6.596;2023-08-06T03:40:14;14.00;99.90
52859;DHT22;38721;53.098;6.596;2023-08-06T03:42:39;14.00;99.90
52859;DHT22;38721;53.098;6.596;2023-08-06T03:45:05;14.00;99.90
52859;DHT22;38721;53.098;6.596;2023-08-06T03:47:31;14.00;99.90
52859;DHT22;38721;53.098;6.596;2023-08-06T03:49:57;13.90;99.90
52859;DHT22;38721;53.098;6.596;2023-08-06T03:52:31;13.90;99.90
52859;DHT22;38721;53.098;6.596;2023-08-06T03:54:57;13.90;99.90
52859;DHT22;38721;53.098;6.596;2023-08-06T03:57:23;13.80;99.90
52859;DHT22;38721;53.098;6.596;2023-08-06T03:59:48;13.80;99.90
52859;DHT22;38721;53.098;6.596;2023-08-06T04:02:14;13.80;99.90
52859;DHT22;38721;53.098;6.596;2023-08-06T04:04:39;13.70;99.90
52859;DHT22;38721;53.098;6.596;2023-08-06T04:07:05;13.70;99.90
52859;DHT22;38721;53.098;6.596;2023-08-06T04:09:31;13.70;99.90
52859;DHT22;38721;53.098;6.596;2023-08-06T04:11:56;13.60;99.90
52859;DHT22;38721;53.098;6.596;2023-08-06T04:14:24;13.60;99.90
52859;DHT22;38721;53.098;6.596;2023-08-06T04:16:51;13.60;99.90
52859;DHT22;38721;53.098;6.596;2023-08-06T04:19:16;13.70;99.90
52859;DHT22;38721;53.098;6.596;2023-08-06T04:21:42;13.70;99.90
52859;DHT22;38721;53.098;6.596;2023-08-06T04:24:08;13.70;99.90
52859;DHT22;38721;53.098;6.596;2023-08-06T04:26:34;13.70;99.90
52859;DHT22;38721;53.098;6.596;2023-08-06T04:28:59;13.70;99.90
52859;DHT22;38721;53.098;6.596;2023-08-06T04:31:25;13.80;99.90
52859;DHT22;38721;53.098;6.596;2023-08-06T04:33:51;13.70;99.90
52859;DHT22;38721;53.098;6.596;2023-08-06T04:36:16;13.70;99.90
52859;DHT22;38721;53.098;6.596;2023-08-06T04:38:42;13.70;99.90
52859;DHT22;38721;53.098;6.596;2023-08-06T04:41:10;13.60;99.90
52859;DHT22;38721;53.098;6.596;2023-08-06T04:43:39;13.60;99.90
52859;DHT22;38721;53.098;6.596;2023-08-06T04:46:05;13.70;99.90
52859;DHT22;38721;53.098;6.596;2023-08-06T04:48:31;13.60;99.90
52859;DHT22;38721;53.098;6.596;2023-08-06T04:50:56;13.60;99.90
52859;DHT22;38721;53.098;6.596;2023-08-06T04:53:22;13.60;99.90
52859;DHT22;38721;53.098;6.596;2023-08-06T04:55:48;13.60;99.90
52859;DHT22;38721;53.098;6.596;2023-08-06T04:58:13;13.60;99.90
52859;DHT22;38721;53.098;6.596;2023-08-06T05:00:39;13.60;99.90
52859;DHT22;38721;53.098;6.596;2023-08-06T05:03:05;13.50;99.90
52859;DHT22;38721;53.098;6.596;2023-08-06T05:05:31;13.70;99.90
52859;DHT22;38721;53.098;6.596;2023-08-06T05:07:57;13.80;99.90
52859;DHT22;38721;53.098;6.596;2023-08-06T05:10:25;13.90;99.90
52859;DHT22;38721;53.098;6.596;2023-08-06T05:12:51;13.90;99.90
52859;DHT22;38721;53.098;6.596;2023-08-06T05:15:16;14.10;99.90
52859;DHT22;38721;53.098;6.596;2023-08-06T05:17:42;14.20;99.90
52859;DHT22;38721;53.098;6.596;2023-08-06T05:20:08;14.30;99.90
52859;DHT22;38721;53.098;6.596;2023-08-06T05:22:34;14.20;99.90
52859;DHT22;38721;53.098;6.596;2023-08-06T05:25:00;14.20;99.90
52859;DHT22;38721;53.098;6.596;2023-08-06T05:27:25;14.20;99.90
52859;DHT22;38721;53.098;6.596;2023-08-06T05:29:55;14.20;99.90
52859;DHT22;38721;53.098;6.596;2023-08-06T05:32:21;14.20;99.90
52859;DHT22;38721;53.098;6.596;2023-08-06T05:34:47;14.10;99.90
52859;DHT22;38721;53.098;6.596;2023-08-06T05:37:12;14.10;99.90
52859;DHT22;38721;53.098;6.596;2023-08-06T05:39:38;14.00;99.90
52859;DHT22;38721;53.098;6.596;2023-08-06T05:42:04;14.10;99.90
52859;DHT22;38721;53.098;6.596;2023-08-06T05:44:30;14.10;99.90
52859;DHT22;38721;53.098;6.596;2023-08-06T05:46:58;14.10;99.90
52859;DHT22;38721;53.098;6.596;2023-08-06T05:49:24;14.20;99.90
52859;DHT22;38721;53.098;6.596;2023-08-06T05:51:50;14.30;99.90
52859;DHT22;38721;53.098;6.596;2023-08-06T05:54:15;14.30;99.90
52859;DHT22;38721;53.098;6.596;2023-08-06T05:56:41;14.40;99.90
52859;DHT22;38721;53.098;6.596;2023-08-06T05:59:06;14.50;99.90
52859;DHT22;38721;53.098;6.596;2023-08-06T06:01:32;14.50;99.90
52859;DHT22;38721;53.098;6.596;2023-08-06T06:03:58;14.70;99.90
52859;DHT22;38721;53.098;6.596;2023-08-06T06:06:23;14.80;99.90
52859;DHT22;38721;53.098;6.596;2023-08-06T06:08:49;14.80;99.90
52859;DHT22;38721;53.098;6.596;2023-08-06T06:11:15;14.90;99.90
52859;DHT22;38721;53.098;6.596;2023-08-06T06:13:40;15.00;99.90
52859;DHT22;38721;53.098;6.596;2023-08-06T06:16:06;15.20;99.90
52859;DHT22;38721;53.098;6.596;2023-08-06T06:18:31;15.30;99.90
52859;DHT22;38721;53.098;6.596;2023-08-06T06:20:57;15.40;99.90
52859;DHT22;38721;53.098;6.596;2023-08-06T06:23:23;15.40;99.90
52859;DHT22;38721;53.098;6.596;2023-08-06T06:25:52;15.40;99.90
52859;DHT22;38721;53.098;6.596;2023-08-06T06:28:18;15.50;99.90
52859;DHT22;38721;53.098;6.596;2023-08-06T06:30:44;15.70;99.90
52859;DHT22;38721;53.098;6.596;2023-08-06T06:33:10;15.80;99.90
52859;DHT22;38721;53.098;6.596;2023-08-06T06:35:36;15.90;99.90
52859;DHT22;38721;53.098;6.596;2023-08-06T06:38:04;16.00;99.90
52859;DHT22;38721;53.098;6.596;2023-08-06T06:40:30;16.00;99.90
52859;DHT22;38721;53.098;6.596;2023-08-06T06:42:55;16.10;99.90
52859;DHT22;38721;53.098;6.596;2023-08-06T06:45:21;16.30;99.90
52859;DHT22;38721;53.098;6.596;2023-08-06T06:47:47;16.40;99.90
52859;DHT22;38721;53.098;6.596;2023-08-06T06:50:12;16.40;99.90
52859;DHT22;38721;53.098;6.596;2023-08-06T06:52:38;16.40;99.90
52859;DHT22;38721;53.098;6.596;2023-08-06T06:55:04;16.30;99.90
52859;DHT22;38721;53.098;6.596;2023-08-06T06:57:30;16.40;99.90
52859;DHT22;38721;53.098;6.596;2023-08-06T06:59:56;16.60;99.90
52859;DHT22;38721;53.098;6.596;2023-08-06T07:02:21;16.80;99.90
52859;DHT22;38721;53.098;6.596;2023-08-06T07:04:47;16.90;99.90
52859;DHT22;38721;53.098;6.596;2023-08-06T07:07:13;17.00;99.90
52859;DHT22;38721;53.098;6.596;2023-08-06T07:09:38;17.10;99.90
52859;DHT22;38721;53.098;6.596;2023-08-06T07:12:04;17.20;99.90
52859;DHT22;38721;53.098;6.596;2023-08-06T07:14:31;17.40;99.90
52859;DHT22;38721;53.098;6.596;2023-08-06T07:16:57;17.50;99.90
52859;DHT22;38721;53.098;6.596;2023-08-06T07:19:23;17.60;99.90
52859;DHT22;38721;53.098;6.596;2023-08-06T07:21:52;17.60;99.90
52859;DHT22;38721;53.098;6.596;2023-08-06T07:24:19;17.60;99.90
52859;DHT22;38721;53.098;6.596;2023-08-06T07:26:45;17.60;99.90
52859;DHT22;38721;53.098;6.596;2023-08-06T07:29:10;17.80;99.90
52859;DHT22;38721;53.098;6.596;2023-08-06T07:31:36;17.90;99.90
52859;DHT22;38721;53.098;6.596;2023-08-06T07:34:02;18.00;99.90
52859;DHT22;38721;53.098;6.596;2023-08-06T07:36:28;17.70;99.90
52859;DHT22;38721;53.098;6.596;2023-08-06T07:38:53;17.70;99.90
52859;DHT22;38721;53.098;6.596;2023-08-06T07:41:25;17.80;99.90
52859;DHT22;38721;53.098;6.596;2023-08-06T07:43:50;17.80;99.90
52859;DHT22;38721;53.098;6.596;2023-08-06T07:46:17;17.70;99.90
52859;DHT22;38721;53.098;6.596;2023-08-06T07:48:43;18.00;99.90
52859;DHT22;38721;53.098;6.596;2023-08-06T07:51:08;18.10;99.90
52859;DHT22;38721;53.098;6.596;2023-08-06T07:53:34;17.80;99.90
52859;DHT22;38721;53.098;6.596;2023-08-06T07:55:59;17.80;99.90
52859;DHT22;38721;53.098;6.596;2023-08-06T07:58:27;17.80;99.90
52859;DHT22;38721;53.098;6.596;2023-08-06T08:00:55;17.70;99.90
52859;DHT22;38721;53.098;6.596;2023-08-06T08:03:23;18.00;99.90
52859;DHT22;38721;53.098;6.596;2023-08-06T08:05:48;17.90;99.90
52859;DHT22;38721;53.098;6.596;2023-08-06T08:08:14;17.70;99.90
52859;DHT22;38721;53.098;6.596;2023-08-06T08:10:40;17.60;99.90
52859;DHT22;38721;53.098;6.596;2023-08-06T08:13:05;17.40;99.90
52859;DHT22;38721;53.098;6.596;2023-08-06T08:15:32;17.30;99.90
52859;DHT22;38721;53.098;6.596;2023-08-06T08:17:58;17.30;99.90
52859;DHT22;38721;53.098;6.596;2023-08-06T08:20:24;17.20;99.90
52859;DHT22;38721;53.098;6.596;2023-08-06T08:22:53;17.60;99.90
52859;DHT22;38721;53.098;6.596;2023-08-06T08:25:21;17.90;99.90
52859;DHT22;38721;53.098;6.596;2023-08-06T08:27:47;18.00;99.90
52859;DHT22;38721;53.098;6.596;2023-08-06T08:30:15;17.90;99.90
52859;DHT22;38721;53.098;6.596;2023-08-06T08:32:41;18.00;99.90
52859;DHT22;38721;53.098;6.596;2023-08-06T08:35:07;17.80;99.90
52859;DHT22;38721;53.098;6.596;2023-08-06T08:37:33;17.80;99.90
52859;DHT22;38721;53.098;6.596;2023-08-06T08:39:58;18.30;99.90
52859;DHT22;38721;53.098;6.596;2023-08-06T08:42:24;18.50;99.90
52859;DHT22;38721;53.098;6.596;2023-08-06T08:44:50;18.70;99.90
52859;DHT22;38721;53.098;6.596;2023-08-06T08:47:16;19.20;99.90
52859;DHT22;38721;53.098;6.596;2023-08-06T08:49:42;18.80;99.90
52859;DHT22;38721;53.098;6.596;2023-08-06T08:52:15;18.90;99.90
52859;DHT22;38721;53.098;6.596;2023-08-06T08:54:42;18.90;99.90
52859;DHT22;38721;53.098;6.596;2023-08-06T08:57:09;19.20;99.90
52859;DHT22;38721;53.098;6.596;2023-08-06T08:59:37;19.30;99.90
52859;DHT22;38721;53.098;6.596;2023-08-06T09:02:02;19.60;99.90
52859;DHT22;38721;53.098;6.596;2023-08-06T09:04:31;19.50;99.90
52859;DHT22;38721;53.098;6.596;2023-08-06T09:06:59;20.00;99.90
52859;DHT22;38721;53.098;6.596;2023-08-06T09:09:34;20.00;99.90
52859;DHT22;38721;53.098;6.596;2023-08-06T09:12:14;20.50;99.90
52859;DHT22;38721;53.098;6.596;2023-08-06T09:14:39;19.90;99.90
52859;DHT22;38721;53.098;6.596;2023-08-06T09:17:05;20.30;99.90
52859;DHT22;38721;53.098;6.596;2023-08-06T09:19:32;20.00;99.90
52859;DHT22;38721;53.098;6.596;2023-08-06T09:21:58;19.90;99.90
52859;DHT22;38721;53.098;6.596;2023-08-06T09:24:24;19.80;99.90
52859;DHT22;38721;53.098;6.596;2023-08-06T09:26:51;19.80;99.90
52859;DHT22;38721;53.098;6.596;2023-08-06T09:29:17;20.10;99.90
52859;DHT22;38721;53.098;6.596;2023-08-06T09:31:43;20.40;99.90
52859;DHT22;38721;53.098;6.596;2023-08-06T09:34:19;20.50;99.90
52859;DHT22;38721;53.098;6.596;2023-08-06T09:36:47;20.40;99.90
52859;DHT22;38721;53.098;6.596;2023-08-06T09:39:18;20.00;99.90
52859;DHT22;38721;53.098;6.596;2023-08-06T09:41:44;19.80;99.90
52859;DHT22;38721;53.098;6.596;2023-08-06T09:44:18;19.90;99.90
52859;DHT22;38721;53.098;6.596;2023-08-06T09:46:52;20.40;99.90
52859;DHT22;38721;53.098;6.596;2023-08-06T09:49:20;20.20;99.90
52859;DHT22;38721;53.098;6.596;2023-08-06T09:51:51;20.70;99.90
52859;DHT22;38721;53.098;6.596;2023-08-06T09:54:22;20.80;99.90
52859;DHT22;38721;53.098;6.596;2023-08-06T09:56:48;21.00;99.90
52859;DHT22;38721;53.098;6.596;2023-08-06T09:59:14;20.80;99.90
52859;DHT22;38721;53.098;6.596;2023-08-06T10:01:41;21.30;99.90
52859;DHT22;38721;53.098;6.596;2023-08-06T10:04:07;21.40;99.90
52859;DHT22;38721;53.098;6.596;2023-08-06T10:06:37;21.20;99.90
52859;DHT22;38721;53.098;6.596;2023-08-06T10:09:06;21.10;99.90
52859;DHT22;38721;53.098;6.596;2023-08-06T10:11:31;21.00;99.90
52859;DHT22;38721;53.098;6.596;2023-08-06T10:14:06;20.70;99.90
52859;DHT22;38721;53.098;6.596;2023-08-06T10:16:33;20.90;99.90
52859;DHT22;38721;53.098;6.596;2023-08-06T10:19:01;20.70;99.90
52859;DHT22;38721;53.098;6.596;2023-08-06T10:21:26;21.00;99.90
52859;DHT22;38721;53.098;6.596;2023-08-06T10:23:54;21.00;99.90
52859;DHT22;38721;53.098;6.596;2023-08-06T10:26:20;21.20;99.90
52859;DHT22;38721;53.098;6.596;2023-08-06T10:28:50;21.00;99.90
52859;DHT22;38721;53.098;6.596;2023-08-06T10:31:15;21.20;99.90
52859;DHT22;38721;53.098;6.596;2023-08-06T10:33:46;21.10;99.90
52859;DHT22;38721;53.098;6.596;2023-08-06T10:36:12;21.10;99.90
52859;DHT22;38721;53.098;6.596;2023-08-06T10:38:48;21.50;99.90
52859;DHT22;38721;53.098;6.596;2023-08-06T10:41:36;21.80;99.90
52859;DHT22;38721;53.098;6.596;2023-08-06T10:44:09;22.10;99.90
52859;DHT22;38721;53.098;6.596;2023-08-06T10:46:36;22.30;99.90
52859;DHT22;38721;53.098;6.596;2023-08-06T10:49:03;22.30;99.90
52859;DHT22;38721;53.098;6.596;2023-08-06T10:51:29;21.40;99.90
52859;DHT22;38721;53.098;6.596;2023-08-06T10:53:54;21.60;99.90
52859;DHT22;38721;53.098;6.596;2023-08-06T10:56:23;21.50;99.90
52859;DHT22;38721;53.098;6.596;2023-08-06T10:58:51;21.80;99.90
52859;DHT22;38721;53.098;6.596;2023-08-06T11:01:18;21.80;99.90
52859;DHT22;38721;53.098;6.596;2023-08-06T11:03:46;22.20;99.90
52859;DHT22;38721;53.098;6.596;2023-08-06T11:06:17;22.60;99.90
52859;DHT22;38721;53.098;6.596;2023-08-06T11:08:52;22.80;99.90
52859;DHT22;38721;53.098;6.596;2023-08-06T11:11:18;23.40;99.90
52859;DHT22;38721;53.098;6.596;2023-08-06T11:13:46;23.10;99.90
52859;DHT22;38721;53.098;6.596;2023-08-06T11:16:13;22.70;99.90
52859;DHT22;38721;53.098;6.596;2023-08-06T11:18:43;22.60;99.90
52859;DHT22;38721;53.098;6.596;2023-08-06T11:21:09;23.40;99.90
52859;DHT22;38721;53.098;6.596;2023-08-06T11:23:35;23.20;99.90
52859;DHT22;38721;53.098;6.596;2023-08-06T11:26:01;23.70;99.90
52859;DHT22;38721;53.098;6.596;2023-08-06T11:28:27;24.10;99.90
52859;DHT22;38721;53.098;6.596;2023-08-06T11:30:53;24.60;99.90
52859;DHT22;38721;53.098;6.596;2023-08-06T11:33:21;24.90;99.90
52859;DHT22;38721;53.098;6.596;2023-08-06T11:35:48;25.10;99.90
52859;DHT22;38721;53.098;6.596;2023-08-06T11:38:14;24.90;99.90
52859;DHT22;38721;53.098;6.596;2023-08-06T11:40:44;23.90;99.90
52859;DHT22;38721;53.098;6.596;2023-08-06T11:43:10;24.60;99.90
52859;DHT22;38721;53.098;6.596;2023-08-06T11:45:35;23.20;99.90
52859;DHT22;38721;53.098;6.596;2023-08-06T11:48:01;22.40;99.90
52859;DHT22;38721;53.098;6.596;2023-08-06T11:50:28;22.10;99.90
52859;DHT22;38721;53.098;6.596;2023-08-06T11:52:59;21.90;99.90
52859;DHT22;38721;53.098;6.596;2023-08-06T11:55:27;21.30;99.90
52859;DHT22;38721;53.098;6.596;2023-08-06T11:57:56;21.50;99.90
52859;DHT22;38721;53.098;6.596;2023-08-06T12:00:26;21.70;99.90
52859;DHT22;38721;53.098;6.596;2023-08-06T12:02:52;22.70;99.90
52859;DHT22;38721;53.098;6.596;2023-08-06T12:05:19;23.50;99.90
52859;DHT22;38721;53.098;6.596;2023-08-06T12:07:56;22.60;99.90
52859;DHT22;38721;53.098;6.596;2023-08-06T12:10:25;22.30;99.90
52859;DHT22;38721;53.098;6.596;2023-08-06T12:12:51;21.80;99.90
52859;DHT22;38721;53.098;6.596;2023-08-06T12:15:17;22.30;99.90
52859;DHT22;38721;53.098;6.596;2023-08-06T12:17:43;23.00;99.90
52859;DHT22;38721;53.098;6.596;2023-08-06T12:20:10;23.80;99.90
52859;DHT22;38721;53.098;6.596;2023-08-06T12:22:37;23.00;99.90
52859;DHT22;38721;53.098;6.596;2023-08-06T12:25:13;22.60;99.90
52859;DHT22;38721;53.098;6.596;2023-08-06T12:27:40;23.00;99.90
52859;DHT22;38721;53.098;6.596;2023-08-06T12:30:07;23.90;99.90
52859;DHT22;38721;53.098;6.596;2023-08-06T12:32:34;23.20;99.90
52859;DHT22;38721;53.098;6.596;2023-08-06T12:35:00;23.50;99.90
52859;DHT22;38721;53.098;6.596;2023-08-06T12:37:26;23.20;99.90
52859;DHT22;38721;53.098;6.596;2023-08-06T12:39:52;24.10;99.90
52859;DHT22;38721;53.098;6.596;2023-08-06T12:42:21;23.80;99.90
52859;DHT22;38721;53.098;6.596;2023-08-06T12:44:50;23.50;99.90
52859;DHT22;38721;53.098;6.596;2023-08-06T12:47:16;23.60;99.90
52859;DHT22;38721;53.098;6.596;2023-08-06T12:49:42;23.30;99.90
52859;DHT22;38721;53.098;6.596;2023-08-06T12:52:12;23.60;99.90
52859;DHT22;38721;53.098;6.596;2023-08-06T12:54:40;23.90;99.90
52859;DHT22;38721;53.098;6.596;2023-08-06T12:57:06;23.00;99.90
52859;DHT22;38721;53.098;6.596;2023-08-06T12:59:32;22.80;99.90
52859;DHT22;38721;53.098;6.596;2023-08-06T13:01:59;23.50;99.90
52859;DHT22;38721;53.098;6.596;2023-08-06T13:04:25;22.50;99.90
52859;DHT22;38721;53.098;6.596;2023-08-06T13:06:51;22.30;99.90
52859;DHT22;38721;53.098;6.596;2023-08-06T13:09:16;22.20;99.90
52859;DHT22;38721;53.098;6.596;2023-08-06T13:11:42;22.50;99.90
52859;DHT22;38721;53.098;6.596;2023-08-06T13:14:12;22.00;99.90
52859;DHT22;38721;53.098;6.596;2023-08-06T13:16:40;22.30;99.90
52859;DHT22;38721;53.098;6.596;2023-08-06T13:19:07;22.10;99.90
52859;DHT22;38721;53.098;6.596;2023-08-06T13:21:34;22.30;99.90
52859;DHT22;38721;53.098;6.596;2023-08-06T13:24:03;22.60;99.90
52859;DHT22;38721;53.098;6.596;2023-08-06T13:26:30;22.40;99.90
52859;DHT22;38721;53.098;6.596;2023-08-06T13:28:59;21.60;99.90
52859;DHT22;38721;53.098;6.596;2023-08-06T13:31:25;21.50;99.90
52859;DHT22;38721;53.098;6.596;2023-08-06T13:33:51;21.40;99.90
52859;DHT22;38721;53.098;6.596;2023-08-06T13:36:17;21.30;99.90
52859;DHT22;38721;53.098;6.596;2023-08-06T13:38:43;21.20;99.90
52859;DHT22;38721;53.098;6.596;2023-08-06T13:41:09;21.60;99.90
52859;DHT22;38721;53.098;6.596;2023-08-06T13:43:34;21.90;99.90
52859;DHT22;38721;53.098;6.596;2023-08-06T13:46:00;22.00;99.90
52859;DHT22;38721;53.098;6.596;2023-08-06T13:48:25;21.10;99.90
52859;DHT22;38721;53.098;6.596;2023-08-06T13:50:52;21.30;99.90
52859;DHT22;38721;53.098;6.596;2023-08-06T13:53:17;22.00;99.90
52859;DHT22;38721;53.098;6.596;2023-08-06T13:55:43;22.30;99.90
52859;DHT22;38721;53.098;6.596;2023-08-06T13:58:09;22.40;99.90
52859;DHT22;38721;53.098;6.596;2023-08-06T14:00:36;21.60;99.90
52859;DHT22;38721;53.098;6.596;2023-08-06T14:03:02;21.70;99.90
52859;DHT22;38721;53.098;6.596;2023-08-06T14:05:27;21.30;99.90
52859;DHT22;38721;53.098;6.596;2023-08-06T14:07:56;21.80;99.90
52859;DHT22;38721;53.098;6.596;2023-08-06T14:10:22;22.30;99.90
52859;DHT22;38721;53.098;6.596;2023-08-06T14:12:48;23.00;99.90
52859;DHT22;38721;53.098;6.596;2023-08-06T14:15:14;23.20;99.90
52859;DHT22;38721;53.098;6.596;2023-08-06T14:17:40;22.10;99.90
52859;DHT22;38721;53.098;6.596;2023-08-06T14:20:06;21.80;99.90
52859;DHT22;38721;53.098;6.596;2023-08-06T14:22:37;21.30;99.90
52859;DHT22;38721;53.098;6.596;2023-08-06T14:25:03;21.50;99.90
52859;DHT22;38721;53.098;6.596;2023-08-06T14:27:32;21.40;99.90
52859;DHT22;38721;53.098;6.596;2023-08-06T14:29:58;20.90;99.90
52859;DHT22;38721;53.098;6.596;2023-08-06T14:32:23;20.90;99.90
52859;DHT22;38721;53.098;6.596;2023-08-06T14:34:49;20.80;99.90
52859;DHT22;38721;53.098;6.596;2023-08-06T14:37:15;20.60;99.90
52859;DHT22;38721;53.098;6.596;2023-08-06T14:39:41;20.60;99.90
52859;DHT22;38721;53.098;6.596;2023-08-06T14:42:06;20.60;99.90
52859;DHT22;38721;53.098;6.596;2023-08-06T14:44:32;20.80;99.90
52859;DHT22;38721;53.098;6.596;2023-08-06T14:46:58;21.60;99.90
52859;DHT22;38721;53.098;6.596;2023-08-06T14:49:23;22.30;99.90
52859;DHT22;38721;53.098;6.596;2023-08-06T14:51:49;23.30;99.90
52859;DHT22;38721;53.098;6.596;2023-08-06T14:54:15;22.90;99.90
52859;DHT22;38721;53.098;6.596;2023-08-06T14:56:44;22.50;99.90
52859;DHT22;38721;53.098;6.596;2023-08-06T14:59:10;23.20;99.90
52859;DHT22;38721;53.098;6.596;2023-08-06T15:01:36;22.80;99.90
52859;DHT22;38721;53.098;6.596;2023-08-06T15:04:01;23.00;99.90
52859;DHT22;38721;53.098;6.596;2023-08-06T15:06:27;23.60;99.90
52859;DHT22;38721;53.098;6.596;2023-08-06T15:08:53;24.10;99.90
52859;DHT22;38721;53.098;6.596;2023-08-06T15:11:23;24.10;99.90
52859;DHT22;38721;53.098;6.596;2023-08-06T15:13:49;23.60;99.90
52859;DHT22;38721;53.098;6.596;2023-08-06T15:16:14;23.50;99.90
52859;DHT22;38721;53.098;6.596;2023-08-06T15:18:40;24.50;99.90
52859;DHT22;38721;53.098;6.596;2023-08-06T15:21:06;25.70;99.90
52859;DHT22;38721;53.098;6.596;2023-08-06T15:23:31;25.90;99.90
52859;DHT22;38721;53.098;6.596;2023-08-06T15:25:57;25.60;99.90
52859;DHT22;38721;53.098;6.596;2023-08-06T15:28:23;25.70;99.90
52859;DHT22;38721;53.098;6.596;2023-08-06T15:30:50;24.90;99.90
52859;DHT22;38721;53.098;6.596;2023-08-06T15:33:17;26.30;99.90